Portada
METAR-TAF:

METAR-TAF

Aeroports :

Wahpeton, Dakota del Nord, Estats Units d'Amèrica

latitud: 46-14-39N, longitud: 096-36-26W, altitud: 295 m

Observació

L'informe es va fer fa 17 minuts, a les 16:15 UTC
Vent 6 kt del Est/Sud-Est
Temperatura -12°C
Humitat 78%
Pressió 1022 hPa
Visibilitat: 16.1 km

METAR: KBWP 281615Z AUTO 11006KT 10SM M12/M15 A3017 RMK AO1

Hora: 10:32 (16:32 UTC)


TAF: manca

Observacions i pronòstics meteorològics de més de 4000 aeroports (METAR i TAF).

Les estacions disponibles són els punts grocs i vermells al mapa.

Posi el ratolí al punt desitjat per veure el nom de l'estació.

Feu clic per veure les observacions i els pronòstics meteorològics.

Per canviar el mapa: feu clic els botons verds amb una creu de color negre per apropar; al botó verd amb un guió per allunyar la imatge; o en les fletxes verdes per a mapes adjacents.


METAR-TAF: